sensor_id;sensor_type;location;lat;lon;timestamp;P1;durP1;ratioP1;P2;durP2;ratioP2
60700;SDS011;46541;49.894;10.886;2022-09-20T00:03:30;3.22;;;1.20;;
60700;SDS011;46541;49.894;10.886;2022-09-20T00:05:59;3.72;;;1.23;;
60700;SDS011;46541;49.894;10.886;2022-09-20T00:08:27;6.32;;;2.00;;
60700;SDS011;46541;49.894;10.886;2022-09-20T00:10:58;7.40;;;2.00;;
60700;SDS011;46541;49.894;10.886;2022-09-20T00:13:29;3.60;;;2.13;;
60700;SDS011;46541;49.894;10.886;2022-09-20T00:15:56;6.70;;;2.97;;
60700;SDS011;46541;49.894;10.886;2022-09-20T00:18:24;3.92;;;2.10;;
60700;SDS011;46541;49.894;10.886;2022-09-20T00:20:52;6.30;;;2.10;;
60700;SDS011;46541;49.894;10.886;2022-09-20T00:23:18;4.03;;;2.03;;
60700;SDS011;46541;49.894;10.886;2022-09-20T00:25:52;2.85;;;1.70;;
60700;SDS011;46541;49.894;10.886;2022-09-20T00:28:20;4.88;;;1.58;;
60700;SDS011;46541;49.894;10.886;2022-09-20T00:30:46;2.42;;;1.40;;
60700;SDS011;46541;49.894;10.886;2022-09-20T00:33:14;1.70;;;1.55;;
60700;SDS011;46541;49.894;10.886;2022-09-20T00:35:44;4.75;;;1.67;;
60700;SDS011;46541;49.894;10.886;2022-09-20T00:38:11;2.80;;;0.90;;
60700;SDS011;46541;49.894;10.886;2022-09-20T00:40:39;4.05;;;1.15;;
60700;SDS011;46541;49.894;10.886;2022-09-20T00:43:14;4.53;;;0.95;;
60700;SDS011;46541;49.894;10.886;2022-09-20T00:45:45;2.08;;;0.88;;
60700;SDS011;46541;49.894;10.886;2022-09-20T00:48:17;2.35;;;1.30;;
60700;SDS011;46541;49.894;10.886;2022-09-20T00:51:00;3.10;;;0.95;;
60700;SDS011;46541;49.894;10.886;2022-09-20T00:53:34;3.00;;;0.55;;
60700;SDS011;46541;49.894;10.886;2022-09-20T00:56:08;7.85;;;1.33;;
60700;SDS011;46541;49.894;10.886;2022-09-20T00:58:42;3.20;;;1.10;;
60700;SDS011;46541;49.894;10.886;2022-09-20T01:01:16;4.15;;;0.95;;
60700;SDS011;46541;49.894;10.886;2022-09-20T01:03:43;1.75;;;1.00;;
60700;SDS011;46541;49.894;10.886;2022-09-20T01:06:12;1.67;;;1.08;;
60700;SDS011;46541;49.894;10.886;2022-09-20T01:08:42;2.45;;;0.88;;
60700;SDS011;46541;49.894;10.886;2022-09-20T01:11:14;2.65;;;0.73;;
60700;SDS011;46541;49.894;10.886;2022-09-20T01:13:40;6.13;;;1.17;;
60700;SDS011;46541;49.894;10.886;2022-09-20T01:16:07;2.17;;;1.08;;
60700;SDS011;46541;49.894;10.886;2022-09-20T01:18:36;1.52;;;0.77;;
60700;SDS011;46541;49.894;10.886;2022-09-20T01:21:04;1.50;;;0.77;;
60700;SDS011;46541;49.894;10.886;2022-09-20T01:28:38;2.65;;;0.80;;
60700;SDS011;46541;49.894;10.886;2022-09-20T01:31:08;1.55;;;0.70;;
60700;SDS011;46541;49.894;10.886;2022-09-20T01:36:32;5.22;;;1.52;;
60700;SDS011;46541;49.894;10.886;2022-09-20T01:39:07;1.92;;;0.90;;
60700;SDS011;46541;49.894;10.886;2022-09-20T01:41:58;3.22;;;0.70;;
60700;SDS011;46541;49.894;10.886;2022-09-20T01:55:47;3.05;;;0.90;;
60700;SDS011;46541;49.894;10.886;2022-09-20T02:43:24;2.20;;;0.75;;
60700;SDS011;46541;49.894;10.886;2022-09-20T02:48:33;3.03;;;0.90;;
60700;SDS011;46541;49.894;10.886;2022-09-20T02:54:21;3.33;;;0.70;;
60700;SDS011;46541;49.894;10.886;2022-09-20T02:57:14;1.65;;;0.63;;
60700;SDS011;46541;49.894;10.886;2022-09-20T03:00:01;3.42;;;0.77;;
60700;SDS011;46541;49.894;10.886;2022-09-20T03:05:12;2.00;;;0.57;;
60700;SDS011;46541;49.894;10.886;2022-09-20T03:16:45;5.43;;;1.15;;
60700;SDS011;46541;49.894;10.886;2022-09-20T03:27:57;5.32;;;0.88;;
60700;SDS011;46541;49.894;10.886;2022-09-20T03:36:43;3.15;;;0.77;;
60700;SDS011;46541;49.894;10.886;2022-09-20T03:39:04;2.08;;;1.02;;
60700;SDS011;46541;49.894;10.886;2022-09-20T03:41:38;3.00;;;0.90;;
60700;SDS011;46541;49.894;10.886;2022-09-20T03:44:43;5.20;;;1.27;;
60700;SDS011;46541;49.894;10.886;2022-09-20T03:50:55;4.95;;;1.00;;
60700;SDS011;46541;49.894;10.886;2022-09-20T04:01:05;2.78;;;1.15;;
60700;SDS011;46541;49.894;10.886;2022-09-20T04:03:54;5.15;;;1.38;;
60700;SDS011;46541;49.894;10.886;2022-09-20T04:06:47;4.80;;;0.90;;
60700;SDS011;46541;49.894;10.886;2022-09-20T04:10:38;3.10;;;0.80;;
60700;SDS011;46541;49.894;10.886;2022-09-20T04:13:08;6.45;;;1.38;;
60700;SDS011;46541;49.894;10.886;2022-09-20T04:21:16;3.55;;;1.15;;
60700;SDS011;46541;49.894;10.886;2022-09-20T04:26:37;4.97;;;0.88;;
60700;SDS011;46541;49.894;10.886;2022-09-20T04:31:58;6.43;;;1.17;;
60700;SDS011;46541;49.894;10.886;2022-09-20T04:34:34;5.13;;;1.25;;
60700;SDS011;46541;49.894;10.886;2022-09-20T04:37:28;3.85;;;1.10;;
60700;SDS011;46541;49.894;10.886;2022-09-20T04:40:04;4.05;;;1.83;;
60700;SDS011;46541;49.894;10.886;2022-09-20T04:42:59;6.32;;;1.40;;
60700;SDS011;46541;49.894;10.886;2022-09-20T04:56:48;6.07;;;2.15;;
60700;SDS011;46541;49.894;10.886;2022-09-20T05:10:50;9.00;;;1.70;;
60700;SDS011;46541;49.894;10.886;2022-09-20T05:23:06;6.30;;;1.88;;
60700;SDS011;46541;49.894;10.886;2022-09-20T05:31:19;7.85;;;2.15;;
60700;SDS011;46541;49.894;10.886;2022-09-20T05:37:38;5.90;;;1.42;;
60700;SDS011;46541;49.894;10.886;2022-09-20T05:56:14;6.18;;;1.48;;
60700;SDS011;46541;49.894;10.886;2022-09-20T06:04:22;6.45;;;2.08;;
60700;SDS011;46541;49.894;10.886;2022-09-20T06:07:10;6.90;;;1.95;;
60700;SDS011;46541;49.894;10.886;2022-09-20T06:13:16;4.78;;;2.13;;
60700;SDS011;46541;49.894;10.886;2022-09-20T06:16:08;2.67;;;1.20;;
60700;SDS011;46541;49.894;10.886;2022-09-20T06:19:33;5.50;;;1.40;;
60700;SDS011;46541;49.894;10.886;2022-09-20T06:21:50;7.75;;;1.75;;
60700;SDS011;46541;49.894;10.886;2022-09-20T06:27:04;8.15;;;1.83;;
60700;SDS011;46541;49.894;10.886;2022-09-20T06:29:37;8.00;;;1.55;;
60700;SDS011;46541;49.894;10.886;2022-09-20T06:32:07;10.10;;;2.45;;
60700;SDS011;46541;49.894;10.886;2022-09-20T06:34:33;6.60;;;2.35;;
60700;SDS011;46541;49.894;10.886;2022-09-20T06:37:07;3.90;;;1.33;;
60700;SDS011;46541;49.894;10.886;2022-09-20T06:40:40;6.15;;;2.70;;
60700;SDS011;46541;49.894;10.886;2022-09-20T06:43:29;9.85;;;2.17;;
60700;SDS011;46541;49.894;10.886;2022-09-20T06:45:57;6.43;;;1.70;;
60700;SDS011;46541;49.894;10.886;2022-09-20T06:48:23;6.40;;;2.20;;
60700;SDS011;46541;49.894;10.886;2022-09-20T06:50:50;11.48;;;2.13;;
60700;SDS011;46541;49.894;10.886;2022-09-20T06:53:26;4.45;;;1.80;;
60700;SDS011;46541;49.894;10.886;2022-09-20T06:55:57;4.43;;;1.70;;
60700;SDS011;46541;49.894;10.886;2022-09-20T06:58:25;5.00;;;1.85;;
60700;SDS011;46541;49.894;10.886;2022-09-20T07:00:53;4.53;;;1.73;;
60700;SDS011;46541;49.894;10.886;2022-09-20T07:03:20;7.65;;;1.80;;
60700;SDS011;46541;49.894;10.886;2022-09-20T07:05:47;5.28;;;1.77;;
60700;SDS011;46541;49.894;10.886;2022-09-20T07:08:14;7.47;;;1.90;;
60700;SDS011;46541;49.894;10.886;2022-09-20T07:10:41;5.43;;;1.70;;
60700;SDS011;46541;49.894;10.886;2022-09-20T07:13:09;3.90;;;1.70;;
60700;SDS011;46541;49.894;10.886;2022-09-20T07:15:38;5.78;;;1.50;;
60700;SDS011;46541;49.894;10.886;2022-09-20T07:18:05;10.50;;;1.75;;
60700;SDS011;46541;49.894;10.886;2022-09-20T07:20:33;16.48;;;2.65;;
60700;SDS011;46541;49.894;10.886;2022-09-20T07:23:00;29.00;;;3.65;;
60700;SDS011;46541;49.894;10.886;2022-09-20T07:25:27;21.85;;;3.80;;
60700;SDS011;46541;49.894;10.886;2022-09-20T07:27:56;12.10;;;2.67;;
60700;SDS011;46541;49.894;10.886;2022-09-20T07:30:23;11.35;;;2.78;;
60700;SDS011;46541;49.894;10.886;2022-09-20T07:32:49;8.93;;;1.73;;
60700;SDS011;46541;49.894;10.886;2022-09-20T07:35:16;8.75;;;2.40;;
60700;SDS011;46541;49.894;10.886;2022-09-20T07:37:43;10.43;;;2.35;;
60700;SDS011;46541;49.894;10.886;2022-09-20T07:40:10;9.98;;;2.20;;
60700;SDS011;46541;49.894;10.886;2022-09-20T07:42:37;8.05;;;2.40;;
60700;SDS011;46541;49.894;10.886;2022-09-20T07:45:04;7.05;;;2.40;;
60700;SDS011;46541;49.894;10.886;2022-09-20T07:47:32;9.23;;;2.42;;
60700;SDS011;46541;49.894;10.886;2022-09-20T07:50:00;5.95;;;2.13;;
60700;SDS011;46541;49.894;10.886;2022-09-20T07:52:28;5.85;;;1.85;;
60700;SDS011;46541;49.894;10.886;2022-09-20T07:54:55;5.18;;;1.80;;
60700;SDS011;46541;49.894;10.886;2022-09-20T07:57:22;5.40;;;1.58;;
60700;SDS011;46541;49.894;10.886;2022-09-20T07:59:49;6.20;;;1.92;;
60700;SDS011;46541;49.894;10.886;2022-09-20T08:02:15;9.90;;;2.33;;
60700;SDS011;46541;49.894;10.886;2022-09-20T08:04:42;11.27;;;2.10;;
60700;SDS011;46541;49.894;10.886;2022-09-20T08:07:10;9.00;;;2.92;;
60700;SDS011;46541;49.894;10.886;2022-09-20T08:09:37;11.23;;;2.30;;
60700;SDS011;46541;49.894;10.886;2022-09-20T08:12:04;5.13;;;1.65;;
60700;SDS011;46541;49.894;10.886;2022-09-20T08:14:53;6.35;;;1.85;;
60700;SDS011;46541;49.894;10.886;2022-09-20T08:17:20;5.65;;;1.88;;
60700;SDS011;46541;49.894;10.886;2022-09-20T08:19:47;6.68;;;1.70;;
60700;SDS011;46541;49.894;10.886;2022-09-20T08:22:14;8.48;;;2.55;;
60700;SDS011;46541;49.894;10.886;2022-09-20T08:24:40;7.93;;;1.80;;
60700;SDS011;46541;49.894;10.886;2022-09-20T08:27:09;6.40;;;1.52;;
60700;SDS011;46541;49.894;10.886;2022-09-20T08:29:35;7.38;;;1.98;;
60700;SDS011;46541;49.894;10.886;2022-09-20T08:32:02;3.35;;;1.40;;
60700;SDS011;46541;49.894;10.886;2022-09-20T08:34:29;3.83;;;1.42;;
60700;SDS011;46541;49.894;10.886;2022-09-20T08:36:56;4.97;;;1.38;;
60700;SDS011;46541;49.894;10.886;2022-09-20T08:39:23;10.35;;;2.40;;
60700;SDS011;46541;49.894;10.886;2022-09-20T08:44:56;6.13;;;1.60;;
60700;SDS011;46541;49.894;10.886;2022-09-20T08:49:58;7.40;;;1.40;;
60700;SDS011;46541;49.894;10.886;2022-09-20T08:52:35;12.07;;;1.50;;
60700;SDS011;46541;49.894;10.886;2022-09-20T08:55:15;5.40;;;1.98;;
60700;SDS011;46541;49.894;10.886;2022-09-20T08:57:49;3.63;;;1.58;;
60700;SDS011;46541;49.894;10.886;2022-09-20T09:00:20;8.57;;;2.00;;
60700;SDS011;46541;49.894;10.886;2022-09-20T09:02:55;12.73;;;2.03;;
60700;SDS011;46541;49.894;10.886;2022-09-20T09:05:27;7.25;;;1.77;;
60700;SDS011;46541;49.894;10.886;2022-09-20T09:07:57;8.75;;;1.70;;
60700;SDS011;46541;49.894;10.886;2022-09-20T09:10:27;7.15;;;1.52;;
60700;SDS011;46541;49.894;10.886;2022-09-20T09:13:27;11.98;;;1.92;;
60700;SDS011;46541;49.894;10.886;2022-09-20T09:16:00;7.85;;;2.03;;
60700;SDS011;46541;49.894;10.886;2022-09-20T09:18:36;6.35;;;1.98;;
60700;SDS011;46541;49.894;10.886;2022-09-20T09:21:07;13.00;;;1.90;;
60700;SDS011;46541;49.894;10.886;2022-09-20T09:23:44;6.65;;;1.73;;
60700;SDS011;46541;49.894;10.886;2022-09-20T09:26:23;4.15;;;1.40;;
60700;SDS011;46541;49.894;10.886;2022-09-20T09:29:07;13.38;;;2.13;;
60700;SDS011;46541;49.894;10.886;2022-09-20T09:31:36;11.33;;;2.47;;
60700;SDS011;46541;49.894;10.886;2022-09-20T09:34:17;9.10;;;2.28;;
60700;SDS011;46541;49.894;10.886;2022-09-20T09:36:55;8.43;;;2.03;;
60700;SDS011;46541;49.894;10.886;2022-09-20T09:41:54;6.82;;;1.85;;
60700;SDS011;46541;49.894;10.886;2022-09-20T09:44:26;7.45;;;2.15;;
60700;SDS011;46541;49.894;10.886;2022-09-20T09:46:56;6.25;;;1.95;;
60700;SDS011;46541;49.894;10.886;2022-09-20T09:49:24;7.57;;;1.85;;
60700;SDS011;46541;49.894;10.886;2022-09-20T09:54:31;5.93;;;2.40;;
60700;SDS011;46541;49.894;10.886;2022-09-20T09:57:06;7.45;;;1.88;;
60700;SDS011;46541;49.894;10.886;2022-09-20T10:14:37;24.33;;;10.93;;
60700;SDS011;46541;49.894;10.886;2022-09-20T10:40:04;7.17;;;1.60;;
60700;SDS011;46541;49.894;10.886;2022-09-20T10:42:49;5.40;;;2.35;;
60700;SDS011;46541;49.894;10.886;2022-09-20T10:46:02;4.20;;;1.70;;
60700;SDS011;46541;49.894;10.886;2022-09-20T10:54:55;6.68;;;1.80;;
60700;SDS011;46541;49.894;10.886;2022-09-20T10:57:46;3.20;;;1.45;;
60700;SDS011;46541;49.894;10.886;2022-09-20T11:00:24;7.13;;;2.10;;
60700;SDS011;46541;49.894;10.886;2022-09-20T11:09:15;2.78;;;1.00;;
60700;SDS011;46541;49.894;10.886;2022-09-20T11:14:44;4.97;;;1.17;;
60700;SDS011;46541;49.894;10.886;2022-09-20T11:17:35;5.13;;;1.50;;
60700;SDS011;46541;49.894;10.886;2022-09-20T11:20:16;6.93;;;1.77;;
60700;SDS011;46541;49.894;10.886;2022-09-20T11:22:49;4.35;;;1.38;;
60700;SDS011;46541;49.894;10.886;2022-09-20T11:25:29;4.22;;;1.50;;
60700;SDS011;46541;49.894;10.886;2022-09-20T11:28:14;1.48;;;0.75;;
60700;SDS011;46541;49.894;10.886;2022-09-20T11:31:03;4.10;;;1.55;;
60700;SDS011;46541;49.894;10.886;2022-09-20T11:36:59;4.90;;;1.05;;
60700;SDS011;46541;49.894;10.886;2022-09-20T11:42:15;6.45;;;1.98;;
60700;SDS011;46541;49.894;10.886;2022-09-20T11:44:45;4.90;;;1.92;;
60700;SDS011;46541;49.894;10.886;2022-09-20T11:47:20;4.22;;;1.40;;
60700;SDS011;46541;49.894;10.886;2022-09-20T11:56:13;6.57;;;1.65;;
60700;SDS011;46541;49.894;10.886;2022-09-20T11:58:48;6.43;;;2.13;;
60700;SDS011;46541;49.894;10.886;2022-09-20T12:01:36;5.10;;;1.20;;
60700;SDS011;46541;49.894;10.886;2022-09-20T12:07:17;3.65;;;1.40;;
60700;SDS011;46541;49.894;10.886;2022-09-20T12:09:53;6.63;;;1.67;;
60700;SDS011;46541;49.894;10.886;2022-09-20T12:12:53;4.78;;;1.23;;
60700;SDS011;46541;49.894;10.886;2022-09-20T12:26:04;8.75;;;1.45;;
60700;SDS011;46541;49.894;10.886;2022-09-20T12:36:31;2.35;;;0.88;;
60700;SDS011;46541;49.894;10.886;2022-09-20T12:39:02;3.05;;;0.90;;
60700;SDS011;46541;49.894;10.886;2022-09-20T12:41:44;0.88;;;0.60;;
60700;SDS011;46541;49.894;10.886;2022-09-20T12:46:56;3.40;;;0.90;;
60700;SDS011;46541;49.894;10.886;2022-09-20T12:49:33;1.85;;;0.55;;
60700;SDS011;46541;49.894;10.886;2022-09-20T13:00:46;3.40;;;0.80;;
60700;SDS011;46541;49.894;10.886;2022-09-20T13:08:38;2.90;;;0.50;;
60700;SDS011;46541;49.894;10.886;2022-09-20T13:11:17;2.30;;;0.75;;
60700;SDS011;46541;49.894;10.886;2022-09-20T13:14:15;2.75;;;0.50;;
60700;SDS011;46541;49.894;10.886;2022-09-20T13:16:59;6.00;;;0.60;;
60700;SDS011;46541;49.894;10.886;2022-09-20T13:19:29;2.33;;;0.47;;
60700;SDS011;46541;49.894;10.886;2022-09-20T13:22:24;1.58;;;0.40;;
60700;SDS011;46541;49.894;10.886;2022-09-20T13:24:55;1.55;;;0.32;;
60700;SDS011;46541;49.894;10.886;2022-09-20T13:27:35;1.45;;;0.93;;
60700;SDS011;46541;49.894;10.886;2022-09-20T13:30:18;1.27;;;0.22;;
60700;SDS011;46541;49.894;10.886;2022-09-20T13:32:54;2.55;;;0.57;;
60700;SDS011;46541;49.894;10.886;2022-09-20T13:35:22;3.30;;;0.70;;
60700;SDS011;46541;49.894;10.886;2022-09-20T13:38:04;1.02;;;0.40;;
60700;SDS011;46541;49.894;10.886;2022-09-20T13:40:33;2.05;;;0.55;;
60700;SDS011;46541;49.894;10.886;2022-09-20T13:43:04;0.90;;;0.20;;
60700;SDS011;46541;49.894;10.886;2022-09-20T13:48:28;1.77;;;0.40;;
60700;SDS011;46541;49.894;10.886;2022-09-20T13:50:55;3.47;;;0.88;;
60700;SDS011;46541;49.894;10.886;2022-09-20T13:53:24;2.50;;;0.65;;
60700;SDS011;46541;49.894;10.886;2022-09-20T13:56:15;1.70;;;0.60;;
60700;SDS011;46541;49.894;10.886;2022-09-20T13:58:48;1.73;;;0.50;;
60700;SDS011;46541;49.894;10.886;2022-09-20T14:03:57;2.92;;;0.40;;
60700;SDS011;46541;49.894;10.886;2022-09-20T14:06:42;2.65;;;0.60;;
60700;SDS011;46541;49.894;10.886;2022-09-20T14:09:16;1.88;;;0.50;;
60700;SDS011;46541;49.894;10.886;2022-09-20T14:12:01;1.00;;;0.30;;
60700;SDS011;46541;49.894;10.886;2022-09-20T14:14:30;1.58;;;0.50;;
60700;SDS011;46541;49.894;10.886;2022-09-20T14:17:00;2.42;;;0.60;;
60700;SDS011;46541;49.894;10.886;2022-09-20T14:19:29;1.70;;;0.60;;
60700;SDS011;46541;49.894;10.886;2022-09-20T14:22:02;3.63;;;2.22;;
60700;SDS011;46541;49.894;10.886;2022-09-20T14:24:31;2.95;;;1.30;;
60700;SDS011;46541;49.894;10.886;2022-09-20T14:27:13;3.45;;;1.70;;
60700;SDS011;46541;49.894;10.886;2022-09-20T14:29:49;2.97;;;1.27;;
60700;SDS011;46541;49.894;10.886;2022-09-20T14:37:28;1.60;;;0.80;;
60700;SDS011;46541;49.894;10.886;2022-09-20T14:40:26;2.38;;;0.73;;
60700;SDS011;46541;49.894;10.886;2022-09-20T14:43:02;4.78;;;2.05;;
60700;SDS011;46541;49.894;10.886;2022-09-20T14:45:34;1.70;;;0.50;;
60700;SDS011;46541;49.894;10.886;2022-09-20T15:01:40;2.40;;;1.25;;
60700;SDS011;46541;49.894;10.886;2022-09-20T15:04:28;4.40;;;1.40;;
60700;SDS011;46541;49.894;10.886;2022-09-20T15:07:01;8.65;;;1.27;;
60700;SDS011;46541;49.894;10.886;2022-09-20T15:09:31;1.13;;;0.55;;
60700;SDS011;46541;49.894;10.886;2022-09-20T15:12:02;1.50;;;0.85;;
60700;SDS011;46541;49.894;10.886;2022-09-20T15:14:30;1.83;;;0.80;;
60700;SDS011;46541;49.894;10.886;2022-09-20T15:17:06;2.67;;;0.90;;
60700;SDS011;46541;49.894;10.886;2022-09-20T15:19:38;1.45;;;0.70;;
60700;SDS011;46541;49.894;10.886;2022-09-20T15:22:07;2.38;;;0.93;;
60700;SDS011;46541;49.894;10.886;2022-09-20T15:24:35;4.00;;;0.82;;
60700;SDS011;46541;49.894;10.886;2022-09-20T15:27:02;2.75;;;0.73;;
60700;SDS011;46541;49.894;10.886;2022-09-20T15:29:29;3.22;;;0.90;;
60700;SDS011;46541;49.894;10.886;2022-09-20T15:31:56;1.13;;;0.50;;
60700;SDS011;46541;49.894;10.886;2022-09-20T15:34:23;0.88;;;0.50;;
60700;SDS011;46541;49.894;10.886;2022-09-20T15:36:50;1.50;;;0.73;;
60700;SDS011;46541;49.894;10.886;2022-09-20T15:39:17;1.80;;;0.70;;
60700;SDS011;46541;49.894;10.886;2022-09-20T15:41:46;1.73;;;1.00;;
60700;SDS011;46541;49.894;10.886;2022-09-20T15:44:14;1.10;;;0.50;;
60700;SDS011;46541;49.894;10.886;2022-09-20T15:46:41;1.23;;;0.43;;
60700;SDS011;46541;49.894;10.886;2022-09-20T15:49:09;0.50;;;0.30;;
60700;SDS011;46541;49.894;10.886;2022-09-20T15:51:37;2.60;;;1.00;;
60700;SDS011;46541;49.894;10.886;2022-09-20T15:54:05;1.42;;;1.00;;
60700;SDS011;46541;49.894;10.886;2022-09-20T15:56:34;4.32;;;0.98;;
60700;SDS011;46541;49.894;10.886;2022-09-20T15:59:03;1.77;;;0.80;;
60700;SDS011;46541;49.894;10.886;2022-09-20T16:01:32;1.05;;;0.60;;
60700;SDS011;46541;49.894;10.886;2022-09-20T16:04:07;1.67;;;0.70;;
60700;SDS011;46541;49.894;10.886;2022-09-20T16:06:35;1.08;;;0.77;;
60700;SDS011;46541;49.894;10.886;2022-09-20T16:09:03;1.27;;;0.82;;
60700;SDS011;46541;49.894;10.886;2022-09-20T16:11:30;2.67;;;0.40;;
60700;SDS011;46541;49.894;10.886;2022-09-20T16:13:57;2.17;;;0.90;;
60700;SDS011;46541;49.894;10.886;2022-09-20T16:16:26;1.48;;;0.80;;
60700;SDS011;46541;49.894;10.886;2022-09-20T16:18:53;2.55;;;0.57;;
60700;SDS011;46541;49.894;10.886;2022-09-20T16:21:40;1.07;;;0.63;;
60700;SDS011;46541;49.894;10.886;2022-09-20T16:24:08;2.33;;;0.77;;
60700;SDS011;46541;49.894;10.886;2022-09-20T16:26:37;2.00;;;0.50;;
60700;SDS011;46541;49.894;10.886;2022-09-20T16:29:04;1.23;;;0.52;;
60700;SDS011;46541;49.894;10.886;2022-09-20T16:31:44;4.55;;;0.65;;
60700;SDS011;46541;49.894;10.886;2022-09-20T16:34:20;4.15;;;1.92;;
60700;SDS011;46541;49.894;10.886;2022-09-20T16:36:47;5.90;;;2.85;;
60700;SDS011;46541;49.894;10.886;2022-09-20T16:39:16;6.45;;;2.63;;
60700;SDS011;46541;49.894;10.886;2022-09-20T16:41:44;4.43;;;1.55;;
60700;SDS011;46541;49.894;10.886;2022-09-20T16:44:13;4.35;;;1.23;;
60700;SDS011;46541;49.894;10.886;2022-09-20T16:46:40;3.70;;;1.50;;
60700;SDS011;46541;49.894;10.886;2022-09-20T16:49:07;12.20;;;5.93;;
60700;SDS011;46541;49.894;10.886;2022-09-20T16:51:37;5.35;;;2.28;;
60700;SDS011;46541;49.894;10.886;2022-09-20T16:54:06;7.03;;;4.47;;
60700;SDS011;46541;49.894;10.886;2022-09-20T16:56:37;7.68;;;4.75;;
60700;SDS011;46541;49.894;10.886;2022-09-20T16:59:08;19.17;;;10.55;;
60700;SDS011;46541;49.894;10.886;2022-09-20T17:01:36;4.35;;;2.67;;
60700;SDS011;46541;49.894;10.886;2022-09-20T17:04:04;5.60;;;2.55;;
60700;SDS011;46541;49.894;10.886;2022-09-20T17:06:33;5.13;;;1.92;;
60700;SDS011;46541;49.894;10.886;2022-09-20T17:09:01;4.90;;;2.53;;
60700;SDS011;46541;49.894;10.886;2022-09-20T17:11:31;9.77;;;3.42;;
60700;SDS011;46541;49.894;10.886;2022-09-20T17:14:00;3.20;;;1.38;;
60700;SDS011;46541;49.894;10.886;2022-09-20T17:16:28;5.07;;;2.47;;
60700;SDS011;46541;49.894;10.886;2022-09-20T17:19:04;4.93;;;2.08;;
60700;SDS011;46541;49.894;10.886;2022-09-20T17:21:37;2.17;;;1.00;;
60700;SDS011;46541;49.894;10.886;2022-09-20T17:24:05;2.35;;;1.08;;
60700;SDS011;46541;49.894;10.886;2022-09-20T17:26:36;1.25;;;1.00;;
60700;SDS011;46541;49.894;10.886;2022-09-20T17:29:07;2.83;;;1.02;;
60700;SDS011;46541;49.894;10.886;2022-09-20T17:31:36;2.72;;;1.70;;
60700;SDS011;46541;49.894;10.886;2022-09-20T17:34:07;2.63;;;1.30;;
60700;SDS011;46541;49.894;10.886;2022-09-20T17:36:37;4.72;;;1.00;;
60700;SDS011;46541;49.894;10.886;2022-09-20T17:39:07;1.50;;;0.93;;
60700;SDS011;46541;49.894;10.886;2022-09-20T17:41:38;2.47;;;1.00;;
60700;SDS011;46541;49.894;10.886;2022-09-20T17:44:06;2.67;;;1.50;;
60700;SDS011;46541;49.894;10.886;2022-09-20T17:46:35;1.70;;;1.00;;
60700;SDS011;46541;49.894;10.886;2022-09-20T17:49:07;1.45;;;0.77;;
60700;SDS011;46541;49.894;10.886;2022-09-20T17:51:37;2.75;;;1.52;;
60700;SDS011;46541;49.894;10.886;2022-09-20T17:54:05;6.55;;;2.42;;
60700;SDS011;46541;49.894;10.886;2022-09-20T17:56:32;4.10;;;1.38;;
60700;SDS011;46541;49.894;10.886;2022-09-20T17:59:01;4.38;;;1.98;;
60700;SDS011;46541;49.894;10.886;2022-09-20T18:01:30;5.03;;;1.98;;
60700;SDS011;46541;49.894;10.886;2022-09-20T18:03:58;3.88;;;1.90;;
60700;SDS011;46541;49.894;10.886;2022-09-20T18:06:34;2.85;;;1.48;;
60700;SDS011;46541;49.894;10.886;2022-09-20T18:09:06;3.35;;;1.70;;
60700;SDS011;46541;49.894;10.886;2022-09-20T18:11:35;2.05;;;1.50;;
60700;SDS011;46541;49.894;10.886;2022-09-20T18:14:14;3.25;;;1.60;;
60700;SDS011;46541;49.894;10.886;2022-09-20T18:16:43;5.18;;;2.50;;
60700;SDS011;46541;49.894;10.886;2022-09-20T18:19:09;2.20;;;1.30;;
60700;SDS011;46541;49.894;10.886;2022-09-20T18:21:37;3.10;;;1.10;;
60700;SDS011;46541;49.894;10.886;2022-09-20T18:24:06;3.20;;;1.50;;
60700;SDS011;46541;49.894;10.886;2022-09-20T18:26:34;3.25;;;1.60;;
60700;SDS011;46541;49.894;10.886;2022-09-20T18:29:03;3.97;;;1.95;;
60700;SDS011;46541;49.894;10.886;2022-09-20T18:34:03;6.40;;;3.58;;
60700;SDS011;46541;49.894;10.886;2022-09-20T18:36:35;4.10;;;2.15;;
60700;SDS011;46541;49.894;10.886;2022-09-20T18:39:04;3.30;;;2.28;;
60700;SDS011;46541;49.894;10.886;2022-09-20T18:41:33;4.22;;;2.20;;
60700;SDS011;46541;49.894;10.886;2022-09-20T18:44:02;5.13;;;2.90;;
60700;SDS011;46541;49.894;10.886;2022-09-20T18:46:30;4.95;;;2.50;;
60700;SDS011;46541;49.894;10.886;2022-09-20T18:48:58;5.18;;;2.30;;
60700;SDS011;46541;49.894;10.886;2022-09-20T18:51:30;5.63;;;2.90;;
60700;SDS011;46541;49.894;10.886;2022-09-20T18:54:04;6.05;;;2.55;;
60700;SDS011;46541;49.894;10.886;2022-09-20T18:56:32;4.07;;;2.47;;
60700;SDS011;46541;49.894;10.886;2022-09-20T18:59:01;5.97;;;3.15;;
60700;SDS011;46541;49.894;10.886;2022-09-20T19:04:12;5.55;;;3.63;;
60700;SDS011;46541;49.894;10.886;2022-09-20T19:09:49;5.75;;;3.60;;
60700;SDS011;46541;49.894;10.886;2022-09-20T19:12:42;6.97;;;4.18;;
60700;SDS011;46541;49.894;10.886;2022-09-20T19:21:24;7.80;;;3.70;;
60700;SDS011;46541;49.894;10.886;2022-09-20T19:26:47;6.20;;;3.50;;
60700;SDS011;46541;49.894;10.886;2022-09-20T19:29:19;9.32;;;4.68;;
60700;SDS011;46541;49.894;10.886;2022-09-20T19:31:48;9.80;;;5.72;;
60700;SDS011;46541;49.894;10.886;2022-09-20T19:34:20;6.07;;;2.35;;
60700;SDS011;46541;49.894;10.886;2022-09-20T19:36:56;3.58;;;2.08;;
60700;SDS011;46541;49.894;10.886;2022-09-20T19:42:27;9.07;;;4.93;;
60700;SDS011;46541;49.894;10.886;2022-09-20T19:45:09;15.23;;;7.40;;
60700;SDS011;46541;49.894;10.886;2022-09-20T19:53:12;12.05;;;5.45;;
60700;SDS011;46541;49.894;10.886;2022-09-20T19:55:42;7.53;;;4.63;;
60700;SDS011;46541;49.894;10.886;2022-09-20T19:58:12;8.80;;;5.05;;
60700;SDS011;46541;49.894;10.886;2022-09-20T20:00:42;6.90;;;4.72;;
60700;SDS011;46541;49.894;10.886;2022-09-20T20:03:13;9.40;;;4.28;;
60700;SDS011;46541;49.894;10.886;2022-09-20T20:05:41;4.18;;;2.88;;
60700;SDS011;46541;49.894;10.886;2022-09-20T20:08:22;11.43;;;3.75;;
60700;SDS011;46541;49.894;10.886;2022-09-20T20:11:08;7.72;;;2.42;;
60700;SDS011;46541;49.894;10.886;2022-09-20T20:13:48;5.32;;;2.10;;
60700;SDS011;46541;49.894;10.886;2022-09-20T20:21:57;6.30;;;3.88;;
60700;SDS011;46541;49.894;10.886;2022-09-20T20:24:36;6.35;;;3.70;;
60700;SDS011;46541;49.894;10.886;2022-09-20T20:27:12;6.13;;;4.18;;
60700;SDS011;46541;49.894;10.886;2022-09-20T20:29:39;5.95;;;3.75;;
60700;SDS011;46541;49.894;10.886;2022-09-20T20:32:06;10.80;;;5.22;;
60700;SDS011;46541;49.894;10.886;2022-09-20T20:34:33;9.00;;;3.85;;
60700;SDS011;46541;49.894;10.886;2022-09-20T20:37:02;10.40;;;4.95;;
60700;SDS011;46541;49.894;10.886;2022-09-20T20:39:29;9.13;;;4.13;;
60700;SDS011;46541;49.894;10.886;2022-09-20T20:41:57;7.75;;;4.10;;
60700;SDS011;46541;49.894;10.886;2022-09-20T20:44:33;5.47;;;3.70;;
60700;SDS011;46541;49.894;10.886;2022-09-20T20:47:01;7.80;;;4.68;;
60700;SDS011;46541;49.894;10.886;2022-09-20T20:49:30;6.93;;;4.15;;
60700;SDS011;46541;49.894;10.886;2022-09-20T20:51:57;8.13;;;4.78;;
60700;SDS011;46541;49.894;10.886;2022-09-20T20:54:27;6.13;;;4.07;;
60700;SDS011;46541;49.894;10.886;2022-09-20T20:56:54;4.80;;;3.03;;
60700;SDS011;46541;49.894;10.886;2022-09-20T20:59:21;5.85;;;3.40;;
60700;SDS011;46541;49.894;10.886;2022-09-20T21:01:49;6.25;;;2.88;;
60700;SDS011;46541;49.894;10.886;2022-09-20T21:04:16;5.90;;;3.33;;
60700;SDS011;46541;49.894;10.886;2022-09-20T21:06:43;4.53;;;2.90;;
60700;SDS011;46541;49.894;10.886;2022-09-20T21:09:10;7.40;;;2.97;;